Time;durP1;ratioP1;P1;durP2;ratioP2;P2;SDS_P1;SDS_P2;PMS_P1;PMS_P2;Temp;Humidity;BMP_temperature;BMP_pressure;BME280_temperature;BME280_humidity;BME280_pressure;Samples;Min_cycle;Max_cycle;Signal;HPM_P1;HPM_P2
2022/06/11 00:00:27;;;;;;;12.50;4.57;;;;;;;;;;5098211;28;20245;-74
2022/06/11 00:02:55;;;;;;;14.47;4.43;;;;;;;;;;5109957;27;20229;-74
2022/06/11 00:05:22;;;;;;;12.83;4.50;;;;;;;;;;5111517;28;20212;-74
2022/06/11 00:07:51;;;;;;;16.17;4.30;;;;;;;;;;5114145;28;20230;-74
2022/06/11 00:10:20;;;;;;;19.73;4.80;;;;;;;;;;5090516;28;20194;-74
2022/06/11 00:12:47;;;;;;;14.43;4.90;;;;;;;;;;5090383;28;20305;-74
2022/06/11 00:15:15;;;;;;;18.00;4.70;;;;;;;;;;5102631;28;20683;-73
2022/06/11 00:17:42;;;;;;;17.13;4.90;;;;;;;;;;5129044;27;20315;-74
2022/06/11 00:20:10;;;;;;;16.63;4.10;;;;;;;;;;5122069;27;20300;-73
2022/06/11 00:22:38;;;;;;;16.23;4.73;;;;;;;;;;5109796;28;20217;-74
2022/06/11 00:25:05;;;;;;;16.30;4.77;;;;;;;;;;5131210;27;20612;-74
2022/06/11 00:27:34;;;;;;;14.37;4.73;;;;;;;;;;5116121;27;20286;-74
2022/06/11 00:30:01;;;;;;;16.80;4.77;;;;;;;;;;5131244;27;20280;-74
2022/06/11 00:32:29;;;;;;;16.03;4.40;;;;;;;;;;5125065;27;20276;-73
2022/06/11 00:34:58;;;;;;;14.47;4.33;;;;;;;;;;5112205;28;20189;-74
2022/06/11 00:37:25;;;;;;;16.60;4.37;;;;;;;;;;5119636;28;20215;-74
2022/06/11 00:39:53;;;;;;;16.13;4.47;;;;;;;;;;5130738;27;20309;-74
2022/06/11 00:42:21;;;;;;;12.97;4.57;;;;;;;;;;5135192;27;20595;-74
2022/06/11 00:44:50;;;;;;;11.40;4.40;;;;;;;;;;5122044;27;20221;-75
2022/06/11 00:47:19;;;;;;;14.33;4.70;;;;;;;;;;5114719;27;20197;-74
2022/06/11 00:49:50;;;;;;;13.50;4.20;;;;;;;;;;5134754;27;20284;-74
2022/06/11 00:52:24;;;;;;;13.50;4.53;;;;;;;;;;5127397;27;20657;-74
2022/06/11 00:54:56;;;;;;;14.83;4.37;;;;;;;;;;5127976;27;20200;-74
2022/06/11 00:57:24;;;;;;;16.57;4.80;;;;;;;;;;5134610;27;20649;-74
2022/06/11 00:59:55;;;;;;;12.33;3.83;;;;;;;;;;5121921;27;20222;-74
2022/06/11 01:02:22;;;;;;;10.30;3.93;;;;;;;;;;5116509;27;20205;-74
2022/06/11 01:04:52;;;;;;;12.53;4.03;;;;;;;;;;5131268;27;20304;-74
2022/06/11 01:07:27;;;;;;;13.27;4.27;;;;;;;;;;5113130;27;20200;-74
2022/06/11 01:10:01;;;;;;;12.20;4.47;;;;;;;;;;5124594;27;20285;-75
2022/06/11 01:12:32;;;;;;;9.70;3.97;;;;;;;;;;5127065;27;20340;-74
2022/06/11 01:15:05;;;;;;;13.53;3.90;;;;;;;;;;5100352;27;20576;-74
2022/06/11 01:17:36;;;;;;;12.83;4.13;;;;;;;;;;5116014;27;20305;-74
2022/06/11 01:20:09;;;;;;;15.70;4.40;;;;;;;;;;5127516;27;20300;-74
2022/06/11 01:22:42;;;;;;;16.07;4.83;;;;;;;;;;5120748;27;20204;-74
2022/06/11 01:25:13;;;;;;;13.00;3.90;;;;;;;;;;5122332;27;20205;-74
2022/06/11 01:28:04;;;;;;;13.67;4.60;;;;;;;;;;5113414;28;20293;-74
2022/06/11 01:30:35;;;;;;;14.00;3.97;;;;;;;;;;5097621;28;20229;-74
2022/06/11 01:33:07;;;;;;;13.13;4.40;;;;;;;;;;5117775;27;20622;-74
2022/06/11 01:35:39;;;;;;;14.10;4.57;;;;;;;;;;5130597;27;20645;-74
2022/06/11 01:38:08;;;;;;;14.40;4.30;;;;;;;;;;5122928;27;20258;-74
2022/06/11 01:40:39;;;;;;;8.33;4.07;;;;;;;;;;5112887;28;20217;-74
2022/06/11 01:43:14;;;;;;;9.03;3.97;;;;;;;;;;5112815;28;20288;-74
2022/06/11 01:45:43;;;;;;;11.07;3.90;;;;;;;;;;5120436;27;20249;-75
2022/06/11 01:48:12;;;;;;;8.90;3.87;;;;;;;;;;5112741;28;20606;-75
2022/06/11 01:50:43;;;;;;;8.63;3.97;;;;;;;;;;5092530;28;20281;-74
2022/06/11 01:53:30;;;;;;;10.00;3.93;;;;;;;;;;5091483;28;20194;-74
2022/06/11 01:56:09;;;;;;;8.47;4.10;;;;;;;;;;5047885;28;20207;-74
2022/06/11 01:58:44;;;;;;;11.23;4.30;;;;;;;;;;5049393;28;20291;-75
2022/06/11 02:01:16;;;;;;;9.10;4.37;;;;;;;;;;5065164;28;20674;-75
2022/06/11 02:03:47;;;;;;;9.73;4.17;;;;;;;;;;5069459;28;20299;-75
2022/06/11 02:06:19;;;;;;;8.00;3.77;;;;;;;;;;5049405;28;20286;-75
2022/06/11 02:08:56;;;;;;;12.67;4.33;;;;;;;;;;5048925;28;20270;-75
2022/06/11 02:11:27;;;;;;;12.13;4.77;;;;;;;;;;5054859;28;20223;-75
2022/06/11 02:13:56;;;;;;;10.87;4.17;;;;;;;;;;5068754;28;20214;-75
2022/06/11 02:16:26;;;;;;;8.73;3.67;;;;;;;;;;5049069;28;20796;-75
2022/06/11 02:18:55;;;;;;;10.97;4.20;;;;;;;;;;5048612;28;20414;-74
2022/06/11 02:21:26;;;;;;;11.37;4.70;;;;;;;;;;5056724;28;20218;-75
2022/06/11 02:23:55;;;;;;;9.17;4.43;;;;;;;;;;5068815;28;20289;-74
2022/06/11 02:26:25;;;;;;;10.47;4.33;;;;;;;;;;5061311;28;20287;-75
2022/06/11 02:28:53;;;;;;;13.57;4.33;;;;;;;;;;5068866;28;20230;-75
2022/06/11 02:31:23;;;;;;;8.67;4.10;;;;;;;;;;5068768;28;20282;-74
2022/06/11 02:33:52;;;;;;;10.73;4.47;;;;;;;;;;5121815;27;20205;-75
2022/06/11 02:36:22;;;;;;;10.30;4.40;;;;;;;;;;5127340;27;20633;-75
2022/06/11 02:38:50;;;;;;;12.97;4.37;;;;;;;;;;5117963;27;20311;-75
2022/06/11 02:41:20;;;;;;;11.70;4.87;;;;;;;;;;5118487;27;20221;-75
2022/06/11 02:43:47;;;;;;;11.33;4.10;;;;;;;;;;5112954;27;20221;-74
2022/06/11 02:49:01;;;;;;;13.67;3.67;;;;;;;;;;5117931;27;20211;-75
2022/06/11 02:51:29;;;;;;;7.60;3.97;;;;;;;;;;5110646;28;20271;-75
2022/06/11 02:53:56;;;;;;;8.30;3.63;;;;;;;;;;5111249;28;20625;-75
2022/06/11 02:56:24;;;;;;;9.53;3.63;;;;;;;;;;5126434;27;20200;-75
2022/06/11 02:58:52;;;;;;;5.97;3.30;;;;;;;;;;5128801;27;20229;-75
2022/06/11 03:01:20;;;;;;;12.57;3.47;;;;;;;;;;5122929;27;20248;-74
2022/06/11 03:03:49;;;;;;;10.93;4.23;;;;;;;;;;5115112;27;20634;-75
2022/06/11 03:06:18;;;;;;;13.20;4.23;;;;;;;;;;5114288;27;20306;-75
2022/06/11 03:08:45;;;;;;;11.43;4.20;;;;;;;;;;5127811;27;20320;-75
2022/06/11 03:11:12;;;;;;;14.20;4.60;;;;;;;;;;5130644;27;20676;-74
2022/06/11 03:13:39;;;;;;;11.43;4.60;;;;;;;;;;5122398;27;20284;-75
2022/06/11 03:16:07;;;;;;;12.43;4.23;;;;;;;;;;5114687;27;20232;-74
2022/06/11 03:18:35;;;;;;;12.10;4.97;;;;;;;;;;5131647;27;20280;-75
2022/06/11 03:21:02;;;;;;;15.47;5.00;;;;;;;;;;5131505;27;20315;-75
2022/06/11 03:23:31;;;;;;;13.53;4.67;;;;;;;;;;5120065;27;20284;-75
2022/06/11 03:25:59;;;;;;;14.80;4.30;;;;;;;;;;5112613;27;20276;-75
2022/06/11 03:28:28;;;;;;;16.17;4.30;;;;;;;;;;5127605;27;20289;-75
2022/06/11 03:30:56;;;;;;;15.10;4.73;;;;;;;;;;5116594;27;20250;-75
2022/06/11 03:33:24;;;;;;;14.10;4.07;;;;;;;;;;5126443;27;20209;-75
2022/06/11 03:35:52;;;;;;;16.23;5.10;;;;;;;;;;5110752;28;20672;-75
2022/06/11 03:38:20;;;;;;;11.57;4.17;;;;;;;;;;5117550;27;20213;-75
2022/06/11 03:40:49;;;;;;;15.13;4.30;;;;;;;;;;5105179;28;20257;-75
2022/06/11 03:43:17;;;;;;;13.40;3.93;;;;;;;;;;5108701;28;20288;-75
2022/06/11 03:45:44;;;;;;;14.20;5.27;;;;;;;;;;5110416;28;20311;-75
2022/06/11 03:48:12;;;;;;;14.03;4.07;;;;;;;;;;5110173;28;20668;-74
2022/06/11 03:50:41;;;;;;;12.00;4.00;;;;;;;;;;5123246;28;20198;-75
2022/06/11 03:53:09;;;;;;;22.00;4.40;;;;;;;;;;5127567;28;20288;-75
2022/06/11 03:55:37;;;;;;;14.73;4.47;;;;;;;;;;5128089;28;20305;-75
2022/06/11 03:58:06;;;;;;;17.17;3.90;;;;;;;;;;5110610;28;20300;-74
2022/06/11 04:03:20;;;;;;;15.60;3.97;;;;;;;;;;5117294;28;20245;-75
2022/06/11 04:05:48;;;;;;;10.60;3.30;;;;;;;;;;5110596;28;20293;-75
2022/06/11 04:08:16;;;;;;;13.80;4.50;;;;;;;;;;5109862;28;20285;-75
2022/06/11 04:10:43;;;;;;;14.60;3.33;;;;;;;;;;5090381;28;20198;-75
2022/06/11 04:13:12;;;;;;;11.97;3.80;;;;;;;;;;5090639;28;20233;-75
2022/06/11 04:15:40;;;;;;;14.83;3.87;;;;;;;;;;5102995;28;20648;-75
2022/06/11 04:18:09;;;;;;;15.10;4.10;;;;;;;;;;5114305;28;20260;-75
2022/06/11 04:20:36;;;;;;;12.37;3.50;;;;;;;;;;5117219;27;20252;-75
2022/06/11 04:23:03;;;;;;;12.40;3.33;;;;;;;;;;5134585;27;20284;-75
2022/06/11 04:25:30;;;;;;;14.27;3.33;;;;;;;;;;5113914;28;20240;-75
2022/06/11 04:27:58;;;;;;;11.83;3.10;;;;;;;;;;5122533;27;20200;-75
2022/06/11 04:30:27;;;;;;;12.90;3.50;;;;;;;;;;5131926;27;20276;-75
2022/06/11 04:32:54;;;;;;;14.10;3.30;;;;;;;;;;5116338;27;20712;-75
2022/06/11 04:35:21;;;;;;;14.90;3.60;;;;;;;;;;5119811;27;20626;-74
2022/06/11 04:37:48;;;;;;;13.73;3.63;;;;;;;;;;5134136;27;20284;-75
2022/06/11 04:40:17;;;;;;;12.77;3.53;;;;;;;;;;5131432;27;21901;-74
2022/06/11 04:42:44;;;;;;;14.57;3.57;;;;;;;;;;5124835;27;20205;-75
2022/06/11 04:45:13;;;;;;;10.50;3.20;;;;;;;;;;5123135;27;20218;-75
2022/06/11 04:47:41;;;;;;;11.63;2.60;;;;;;;;;;5134342;27;20684;-75
2022/06/11 04:50:09;;;;;;;10.87;3.00;;;;;;;;;;5134432;27;20356;-75
2022/06/11 04:52:36;;;;;;;16.53;3.33;;;;;;;;;;5134561;27;20303;-75
2022/06/11 04:55:04;;;;;;;12.63;3.20;;;;;;;;;;5122971;27;20276;-74
2022/06/11 04:57:31;;;;;;;11.73;3.10;;;;;;;;;;5114031;28;20194;-75
2022/06/11 04:59:59;;;;;;;12.13;3.80;;;;;;;;;;5108386;28;20229;-75
2022/06/11 05:02:26;;;;;;;14.33;3.13;;;;;;;;;;5128677;27;20312;-75
2022/06/11 05:04:55;;;;;;;14.07;3.33;;;;;;;;;;5121387;27;20233;-74
2022/06/11 05:07:23;;;;;;;9.13;3.27;;;;;;;;;;5113427;28;20240;-75
2022/06/11 05:09:50;;;;;;;13.93;3.30;;;;;;;;;;5112999;28;20219;-75
2022/06/11 05:12:17;;;;;;;12.13;3.20;;;;;;;;;;5122319;27;20276;-75
2022/06/11 05:14:45;;;;;;;11.40;3.23;;;;;;;;;;5131371;27;20301;-75
2022/06/11 05:17:12;;;;;;;11.67;3.10;;;;;;;;;;5112433;28;20264;-75
2022/06/11 05:19:39;;;;;;;16.77;3.87;;;;;;;;;;5113360;27;20300;-75
2022/06/11 05:22:08;;;;;;;9.33;2.80;;;;;;;;;;5117730;27;20227;-75
2022/06/11 05:24:35;;;;;;;9.43;2.87;;;;;;;;;;5131104;27;20287;-75
2022/06/11 05:27:03;;;;;;;6.97;2.63;;;;;;;;;;5127030;27;20279;-75
2022/06/11 05:29:32;;;;;;;11.37;3.30;;;;;;;;;;5113423;27;20198;-75
2022/06/11 05:32:00;;;;;;;9.33;2.80;;;;;;;;;;5120935;27;20280;-75
2022/06/11 05:34:27;;;;;;;12.30;3.20;;;;;;;;;;5112630;28;20277;-76
2022/06/11 05:36:54;;;;;;;13.43;3.50;;;;;;;;;;5113278;28;20281;-74
2022/06/11 05:39:23;;;;;;;11.17;3.00;;;;;;;;;;5112737;27;20258;-75
2022/06/11 05:41:50;;;;;;;8.83;2.97;;;;;;;;;;5121871;27;20248;-75
2022/06/11 05:44:18;;;;;;;14.27;3.03;;;;;;;;;;5128330;27;20706;-75
2022/06/11 05:46:45;;;;;;;8.87;2.43;;;;;;;;;;5112260;28;20255;-75
2022/06/11 05:49:15;;;;;;;11.27;3.10;;;;;;;;;;5101053;28;20202;-75
2022/06/11 05:51:45;;;;;;;9.97;2.60;;;;;;;;;;5092400;28;20286;-75
2022/06/11 05:54:14;;;;;;;9.87;2.93;;;;;;;;;;5124351;27;20228;-74
2022/06/11 05:56:44;;;;;;;11.10;2.77;;;;;;;;;;5128982;27;20325;-75
2022/06/11 05:59:13;;;;;;;10.03;3.00;;;;;;;;;;5124124;27;20633;-75
2022/06/11 06:01:41;;;;;;;12.50;2.67;;;;;;;;;;5130816;27;20621;-75
2022/06/11 06:04:09;;;;;;;8.03;2.33;;;;;;;;;;5132989;27;20292;-75
2022/06/11 06:06:36;;;;;;;11.20;3.33;;;;;;;;;;5132817;27;20201;-75
2022/06/11 06:09:03;;;;;;;11.73;2.63;;;;;;;;;;5132974;27;20229;-75
2022/06/11 06:11:31;;;;;;;11.87;2.60;;;;;;;;;;5117428;27;20289;-75
2022/06/11 06:13:59;;;;;;;10.50;3.13;;;;;;;;;;5111396;27;20879;-75
2022/06/11 06:16:29;;;;;;;12.23;3.10;;;;;;;;;;5114563;27;20275;-75
2022/06/11 06:18:56;;;;;;;13.53;2.50;;;;;;;;;;5117698;27;20205;-75
2022/06/11 06:21:25;;;;;;;12.32;2.55;;;;;;;;;;5112036;28;20224;-75
2022/06/11 06:23:52;;;;;;;11.65;2.88;;;;;;;;;;5112093;28;20197;-75
2022/06/11 06:26:20;;;;;;;8.38;2.35;;;;;;;;;;5112506;28;20244;-74
2022/06/11 06:28:47;;;;;;;9.93;2.53;;;;;;;;;;5111349;28;20248;-75
2022/06/11 06:31:16;;;;;;;10.32;3.05;;;;;;;;;;5112579;27;20225;-75
2022/06/11 06:33:44;;;;;;;9.50;2.40;;;;;;;;;;5111352;28;20292;-75
2022/06/11 06:36:11;;;;;;;9.75;2.42;;;;;;;;;;5120176;27;20280;-75
2022/06/11 06:38:39;;;;;;;9.25;2.35;;;;;;;;;;5132240;27;20283;-75
2022/06/11 06:41:07;;;;;;;9.77;2.00;;;;;;;;;;5132093;27;20232;-75
2022/06/11 06:43:34;;;;;;;11.15;2.78;;;;;;;;;;5132342;27;20204;-75
2022/06/11 06:46:02;;;;;;;7.97;2.20;;;;;;;;;;5115110;27;20253;-75
2022/06/11 06:48:30;;;;;;;11.95;2.17;;;;;;;;;;5111967;28;20236;-75
2022/06/11 06:50:57;;;;;;;9.68;2.30;;;;;;;;;;5119151;27;20276;-75
2022/06/11 06:53:25;;;;;;;9.00;2.40;;;;;;;;;;5132721;27;20257;-75
2022/06/11 06:55:53;;;;;;;8.23;1.95;;;;;;;;;;5130677;27;20196;-75
2022/06/11 06:58:20;;;;;;;6.00;2.03;;;;;;;;;;5132307;27;20288;-75
2022/06/11 07:00:47;;;;;;;8.80;2.05;;;;;;;;;;5132300;27;20311;-76
2022/06/11 07:03:15;;;;;;;7.43;2.28;;;;;;;;;;5132050;27;20661;-75
2022/06/11 07:05:44;;;;;;;9.50;2.40;;;;;;;;;;5116559;27;20190;-75
2022/06/11 07:08:11;;;;;;;7.65;2.17;;;;;;;;;;5114049;27;20819;-75
2022/06/11 07:10:39;;;;;;;8.48;2.30;;;;;;;;;;5105479;27;20716;-75
2022/06/11 07:13:06;;;;;;;6.30;2.15;;;;;;;;;;5111163;27;20247;-76
2022/06/11 07:15:33;;;;;;;8.93;1.95;;;;;;;;;;5115428;27;20642;-75
2022/06/11 07:18:03;;;;;;;6.93;1.67;;;;;;;;;;5109425;27;20222;-75
2022/06/11 07:20:32;;;;;;;6.38;2.15;;;;;;;;;;5109297;28;20293;-75
2022/06/11 07:23:01;;;;;;;6.55;1.70;;;;;;;;;;5110241;27;20257;-75
2022/06/11 07:25:29;;;;;;;6.07;1.65;;;;;;;;;;5110427;27;20244;-75
2022/06/11 07:27:58;;;;;;;10.20;2.25;;;;;;;;;;5107993;28;20237;-75
2022/06/11 07:30:27;;;;;;;6.45;1.92;;;;;;;;;;5109425;28;20273;-75
2022/06/11 07:32:57;;;;;;;9.57;1.90;;;;;;;;;;5109636;28;21737;-75
2022/06/11 07:35:24;;;;;;;5.53;1.90;;;;;;;;;;5109829;27;20284;-76
2022/06/11 07:37:52;;;;;;;7.90;1.83;;;;;;;;;;5110377;27;20225;-76
2022/06/11 07:40:21;;;;;;;8.07;2.15;;;;;;;;;;5110765;28;20300;-76
2022/06/11 07:42:48;;;;;;;6.35;2.10;;;;;;;;;;5119896;27;20224;-76
2022/06/11 07:45:16;;;;;;;6.07;1.67;;;;;;;;;;5119409;27;20307;-76
2022/06/11 07:47:55;;;;;;;6.43;2.03;;;;;;;;;;5121216;27;20288;-76
2022/06/11 07:50:24;;;;;;;6.68;2.03;;;;;;;;;;5113479;28;20220;-76
2022/06/11 07:52:51;;;;;;;8.23;2.03;;;;;;;;;;5109805;28;20273;-76
2022/06/11 07:55:19;;;;;;;6.20;1.90;;;;;;;;;;5122286;28;20193;-76
2022/06/11 07:57:48;;;;;;;7.57;2.08;;;;;;;;;;5113133;27;20274;-76
2022/06/11 08:00:16;;;;;;;6.85;1.85;;;;;;;;;;5104930;28;20292;-76
2022/06/11 08:02:44;;;;;;;5.18;1.75;;;;;;;;;;5124934;28;20220;-76
2022/06/11 08:05:11;;;;;;;9.00;2.00;;;;;;;;;;5098638;28;20232;-76
2022/06/11 08:07:38;;;;;;;5.88;1.65;;;;;;;;;;5117407;27;20283;-76
2022/06/11 08:10:06;;;;;;;6.85;1.77;;;;;;;;;;5118361;27;20288;-76
2022/06/11 08:12:33;;;;;;;5.72;1.60;;;;;;;;;;5111012;28;20281;-76
2022/06/11 08:15:03;;;;;;;3.33;1.30;;;;;;;;;;5112177;28;20284;-76
2022/06/11 08:17:30;;;;;;;6.00;1.67;;;;;;;;;;5110601;28;20226;-76
2022/06/11 08:19:58;;;;;;;4.82;1.50;;;;;;;;;;5110923;28;20289;-76
2022/06/11 08:22:25;;;;;;;6.55;1.70;;;;;;;;;;5122841;28;20252;-76
2022/06/11 08:24:52;;;;;;;6.18;1.73;;;;;;;;;;5118895;27;20249;-77
2022/06/11 08:27:19;;;;;;;7.30;1.88;;;;;;;;;;5117929;27;20200;-76
2022/06/11 08:29:47;;;;;;;5.90;1.55;;;;;;;;;;5122247;28;20225;-76
2022/06/11 08:32:15;;;;;;;5.20;1.73;;;;;;;;;;5126223;28;20358;-76
2022/06/11 08:34:45;;;;;;;5.53;1.55;;;;;;;;;;5109120;28;20296;-77
2022/06/11 08:37:13;;;;;;;5.45;1.80;;;;;;;;;;5109883;28;20229;-77
2022/06/11 08:39:41;;;;;;;7.43;1.70;;;;;;;;;;5123896;28;20236;-76
2022/06/11 08:42:08;;;;;;;5.05;1.60;;;;;;;;;;5114219;27;20283;-76
2022/06/11 08:44:37;;;;;;;8.80;1.80;;;;;;;;;;5109186;28;20310;-76
2022/06/11 08:47:07;;;;;;;6.57;1.60;;;;;;;;;;5121460;27;20304;-76
2022/06/11 08:49:40;;;;;;;6.40;1.70;;;;;;;;;;5117821;27;20653;-75
2022/06/11 08:52:11;;;;;;;5.97;1.50;;;;;;;;;;5123870;28;20258;-76
2022/06/11 08:54:41;;;;;;;6.55;1.77;;;;;;;;;;5109357;28;20285;-76
2022/06/11 08:57:13;;;;;;;7.75;1.65;;;;;;;;;;5093430;28;20194;-76
2022/06/11 08:59:58;;;;;;;7.50;1.70;;;;;;;;;;5104984;28;20288;-76
2022/06/11 09:02:35;;;;;;;4.68;1.60;;;;;;;;;;5108775;27;20331;-76
2022/06/11 09:05:13;;;;;;;4.55;1.30;;;;;;;;;;5107034;27;20189;-76
2022/06/11 09:07:48;;;;;;;5.07;1.40;;;;;;;;;;5113063;27;20289;-76
2022/06/11 09:10:27;;;;;;;5.75;1.60;;;;;;;;;;5111068;27;20291;-76
2022/06/11 09:13:05;;;;;;;7.35;1.83;;;;;;;;;;5109674;27;20224;-76
2022/06/11 09:15:37;;;;;;;4.80;1.65;;;;;;;;;;5109709;27;20208;-77
2022/06/11 09:18:12;;;;;;;7.13;1.85;;;;;;;;;;5109499;27;20260;-76
2022/06/11 09:20:46;;;;;;;5.03;1.60;;;;;;;;;;5117052;27;20301;-76
2022/06/11 09:23:31;;;;;;;5.25;1.80;;;;;;;;;;5111267;27;20241;-76
2022/06/11 09:26:04;;;;;;;4.40;1.50;;;;;;;;;;5112627;27;20203;-76
2022/06/11 09:28:38;;;;;;;3.95;1.25;;;;;;;;;;5110209;27;20289;-76
2022/06/11 09:31:11;;;;;;;4.57;1.17;;;;;;;;;;5113993;27;20200;-76
2022/06/11 09:33:41;;;;;;;6.82;1.50;;;;;;;;;;5121250;27;20299;-76
2022/06/11 09:36:13;;;;;;;4.72;1.40;;;;;;;;;;5127455;27;20259;-75
2022/06/11 09:38:48;;;;;;;5.47;1.27;;;;;;;;;;5115592;27;20285;-76
2022/06/11 09:41:22;;;;;;;5.75;1.38;;;;;;;;;;5112202;27;20228;-76
2022/06/11 09:43:54;;;;;;;4.28;1.33;;;;;;;;;;5124100;27;20299;-76
2022/06/11 09:46:24;;;;;;;5.10;1.58;;;;;;;;;;5113384;28;20240;-77
2022/06/11 09:49:07;;;;;;;4.40;1.50;;;;;;;;;;5119134;27;20850;-77
2022/06/11 09:51:40;;;;;;;5.65;1.60;;;;;;;;;;5102590;27;20682;-74
2022/06/11 09:54:16;;;;;;;4.15;1.27;;;;;;;;;;5118822;27;20245;-75
2022/06/11 09:56:46;;;;;;;4.40;1.40;;;;;;;;;;5106940;27;20209;-75
2022/06/11 09:59:20;;;;;;;3.55;1.30;;;;;;;;;;5111574;27;20225;-75
2022/06/11 10:01:50;;;;;;;3.80;1.30;;;;;;;;;;5118474;27;20225;-77
2022/06/11 10:04:19;;;;;;;4.25;1.40;;;;;;;;;;5120636;27;20715;-77
2022/06/11 10:06:49;;;;;;;4.20;1.42;;;;;;;;;;5123816;27;20275;-77
2022/06/11 10:09:18;;;;;;;5.13;1.50;;;;;;;;;;5122454;27;20281;-76
2022/06/11 10:11:48;;;;;;;4.90;1.30;;;;;;;;;;5108939;27;20249;-76
2022/06/11 10:14:32;;;;;;;3.42;1.17;;;;;;;;;;5099451;27;20221;-77
2022/06/11 10:17:02;;;;;;;4.43;1.30;;;;;;;;;;5113286;27;20729;-77
2022/06/11 10:19:33;;;;;;;3.92;1.77;;;;;;;;;;5121520;27;20281;-77
2022/06/11 10:22:03;;;;;;;4.63;1.25;;;;;;;;;;5126522;27;20280;-74
2022/06/11 10:24:31;;;;;;;2.92;1.40;;;;;;;;;;5124471;27;20193;-75
2022/06/11 10:27:01;;;;;;;3.70;0.93;;;;;;;;;;5121045;27;20292;-76
2022/06/11 10:29:34;;;;;;;4.10;1.20;;;;;;;;;;5118100;27;20201;-76
2022/06/11 10:32:03;;;;;;;7.10;1.67;;;;;;;;;;5121258;27;20215;-75
2022/06/11 10:34:31;;;;;;;4.05;1.30;;;;;;;;;;5124635;27;20288;-76
2022/06/11 10:37:01;;;;;;;3.13;1.00;;;;;;;;;;5121245;27;20205;-76
2022/06/11 10:39:32;;;;;;;2.83;1.20;;;;;;;;;;5126241;27;20304;-76
2022/06/11 10:42:03;;;;;;;3.00;1.00;;;;;;;;;;5115602;27;20235;-76
2022/06/11 10:44:37;;;;;;;2.58;1.13;;;;;;;;;;5123510;27;20209;-76
2022/06/11 10:47:13;;;;;;;4.18;1.17;;;;;;;;;;5103080;27;20201;-77
2022/06/11 10:49:41;;;;;;;2.50;0.98;;;;;;;;;;5103485;27;20197;-76
2022/06/11 10:52:16;;;;;;;2.28;1.00;;;;;;;;;;5116727;27;20227;-78
2022/06/11 10:54:45;;;;;;;4.28;1.20;;;;;;;;;;5130319;27;20279;-77
2022/06/11 10:57:19;;;;;;;3.40;1.10;;;;;;;;;;5115210;27;20260;-78
2022/06/11 10:59:55;;;;;;;3.65;1.10;;;;;;;;;;5113498;27;20196;-76
2022/06/11 11:02:26;;;;;;;1.92;0.90;;;;;;;;;;5122909;27;20244;-77
2022/06/11 11:04:58;;;;;;;3.42;1.20;;;;;;;;;;5118783;27;20284;-76
2022/06/11 11:07:25;;;;;;;3.67;1.20;;;;;;;;;;5111982;27;20233;-76
2022/06/11 11:09:58;;;;;;;1.90;1.00;;;;;;;;;;5114451;27;20229;-76
2022/06/11 11:12:27;;;;;;;3.85;1.30;;;;;;;;;;5113958;27;20201;-76
2022/06/11 11:14:59;;;;;;;2.75;1.17;;;;;;;;;;5110016;27;20225;-77
2022/06/11 11:17:28;;;;;;;2.53;1.00;;;;;;;;;;5108019;27;20312;-78
2022/06/11 11:22:53;;;;;;;2.67;0.98;;;;;;;;;;5113341;27;20221;-78
2022/06/11 11:25:24;;;;;;;3.90;1.58;;;;;;;;;;5114979;27;20298;-78
2022/06/11 11:27:52;;;;;;;19.80;17.80;;;;;;;;;;5115360;27;20289;-79
2022/06/11 11:30:27;;;;;;;6.35;4.93;;;;;;;;;;5113370;27;20194;-80
2022/06/11 11:32:54;;;;;;;1.67;1.10;;;;;;;;;;5111262;27;20636;-79
2022/06/11 11:35:23;;;;;;;3.45;1.20;;;;;;;;;;5124501;27;20231;-75
2022/06/11 11:37:58;;;;;;;4.03;1.70;;;;;;;;;;5101344;28;20292;-74
2022/06/11 11:40:28;;;;;;;4.57;1.40;;;;;;;;;;5094621;27;20591;-74
2022/06/11 11:42:57;;;;;;;2.50;1.10;;;;;;;;;;5118720;28;20216;-74
2022/06/11 11:45:25;;;;;;;1.63;0.90;;;;;;;;;;5108618;27;20229;-74
2022/06/11 11:47:55;;;;;;;3.70;1.17;;;;;;;;;;5092383;28;20683;-75
2022/06/11 11:50:26;;;;;;;2.70;1.20;;;;;;;;;;5115140;28;20228;-75
2022/06/11 11:52:55;;;;;;;2.45;1.08;;;;;;;;;;5092287;28;20284;-75
2022/06/11 11:55:26;;;;;;;2.72;1.20;;;;;;;;;;5112538;28;20203;-75
2022/06/11 11:57:57;;;;;;;2.03;0.98;;;;;;;;;;5108063;28;20208;-75
2022/06/11 12:00:26;;;;;;;3.92;1.10;;;;;;;;;;5110318;28;20189;-79
2022/06/11 12:02:55;;;;;;;2.65;1.23;;;;;;;;;;5107003;27;20313;-78
2022/06/11 12:05:24;;;;;;;3.90;1.00;;;;;;;;;;5102248;28;20233;-79
2022/06/11 12:07:53;;;;;;;5.60;1.30;;;;;;;;;;5111188;28;20237;-79
2022/06/11 12:10:27;;;;;;;2.83;0.80;;;;;;;;;;5111184;28;20202;-78
2022/06/11 12:12:56;;;;;;;3.42;1.25;;;;;;;;;;5104522;28;20226;-78
2022/06/11 12:15:24;;;;;;;2.78;1.23;;;;;;;;;;5112030;28;20229;-78
2022/06/11 12:17:52;;;;;;;2.35;1.10;;;;;;;;;;5115020;28;20324;-78
2022/06/11 12:20:32;;;;;;;1.67;0.98;;;;;;;;;;5124354;28;20279;-78
2022/06/11 12:23:02;;;;;;;1.80;1.00;;;;;;;;;;5097391;28;20304;-77
2022/06/11 12:25:34;;;;;;;1.67;0.93;;;;;;;;;;5111229;28;20660;-77
2022/06/11 12:28:03;;;;;;;2.40;0.90;;;;;;;;;;5110526;28;20751;-77
2022/06/11 12:30:31;;;;;;;2.22;1.10;;;;;;;;;;5121863;28;20229;-78
2022/06/11 12:33:00;;;;;;;3.90;1.10;;;;;;;;;;5125154;27;20296;-78
2022/06/11 12:35:32;;;;;;;3.17;1.10;;;;;;;;;;5119859;27;20205;-77
2022/06/11 12:38:03;;;;;;;2.88;0.90;;;;;;;;;;5108601;27;20285;-78
2022/06/11 12:40:34;;;;;;;4.22;1.15;;;;;;;;;;5123841;27;20197;-77
2022/06/11 12:43:11;;;;;;;2.05;1.00;;;;;;;;;;5114968;28;20253;-77
2022/06/11 12:45:43;;;;;;;3.53;1.17;;;;;;;;;;5118372;27;20804;-77
2022/06/11 12:48:19;;;;;;;2.40;0.82;;;;;;;;;;5119799;27;20260;-78
2022/06/11 12:50:53;;;;;;;2.60;0.98;;;;;;;;;;5108920;27;20668;-77
2022/06/11 12:53:25;;;;;;;1.30;0.82;;;;;;;;;;5123780;27;20321;-77
2022/06/11 12:55:58;;;;;;;1.67;0.88;;;;;;;;;;5119990;27;20220;-77
2022/06/11 12:58:37;;;;;;;1.88;1.08;;;;;;;;;;5124709;27;20197;-77
2022/06/11 13:01:05;;;;;;;1.90;0.82;;;;;;;;;;5127922;27;20279;-78
2022/06/11 13:03:47;;;;;;;1.77;0.82;;;;;;;;;;5117437;27;20301;-77
2022/06/11 13:06:28;;;;;;;2.00;0.88;;;;;;;;;;5122795;27;20201;-77
2022/06/11 13:09:02;;;;;;;2.65;0.90;;;;;;;;;;5094204;28;20225;-77
2022/06/11 13:11:37;;;;;;;2.35;0.93;;;;;;;;;;5093880;28;20284;-77
2022/06/11 13:14:22;;;;;;;1.85;1.00;;;;;;;;;;5100032;27;20302;-77
2022/06/11 13:16:52;;;;;;;1.98;0.90;;;;;;;;;;5113048;28;20269;-77
2022/06/11 13:19:27;;;;;;;3.40;0.90;;;;;;;;;;5122432;27;20258;-77
2022/06/11 13:21:58;;;;;;;1.95;1.10;;;;;;;;;;5107931;27;20285;-77
2022/06/11 13:24:32;;;;;;;1.60;0.93;;;;;;;;;;5118432;27;20303;-77
2022/06/11 13:27:03;;;;;;;3.05;1.15;;;;;;;;;;5093192;27;20251;-77
2022/06/11 13:29:38;;;;;;;2.53;1.02;;;;;;;;;;5100018;27;20224;-77
2022/06/11 13:32:10;;;;;;;2.25;0.93;;;;;;;;;;5101521;28;20296;-77
2022/06/11 13:34:41;;;;;;;2.05;0.95;;;;;;;;;;5097324;27;20203;-78
2022/06/11 13:37:16;;;;;;;1.42;0.70;;;;;;;;;;5134802;27;20229;-77
2022/06/11 13:39:49;;;;;;;1.77;1.00;;;;;;;;;;5117780;27;20205;-77
2022/06/11 13:42:23;;;;;;;1.30;0.70;;;;;;;;;;5105875;28;20296;-77
2022/06/11 13:44:58;;;;;;;3.13;1.08;;;;;;;;;;5119620;27;20299;-77
2022/06/11 13:47:45;;;;;;;2.10;1.10;;;;;;;;;;5132163;27;20287;-77
2022/06/11 13:50:26;;;;;;;2.22;0.88;;;;;;;;;;5113450;27;20237;-78
2022/06/11 13:55:42;;;;;;;1.63;0.88;;;;;;;;;;5093151;28;20201;-78
2022/06/11 13:58:18;;;;;;;2.08;1.10;;;;;;;;;;5116218;27;20249;-77
2022/06/11 14:00:55;;;;;;;1.52;1.08;;;;;;;;;;5126224;27;20282;-77
2022/06/11 14:03:36;;;;;;;1.52;0.90;;;;;;;;;;5120497;27;20297;-77
2022/06/11 14:06:05;;;;;;;2.35;0.98;;;;;;;;;;5111328;27;20293;-77
2022/06/11 14:08:38;;;;;;;1.50;0.90;;;;;;;;;;5112891;27;20280;-76
2022/06/11 14:11:05;;;;;;;2.05;1.08;;;;;;;;;;5106237;27;20209;-77
2022/06/11 14:13:54;;;;;;;2.30;1.02;;;;;;;;;;5102489;27;20768;-77
2022/06/11 14:16:41;;;;;;;3.35;1.00;;;;;;;;;;5091792;28;20233;-77
2022/06/11 14:19:27;;;;;;;1.88;1.02;;;;;;;;;;5099645;28;20205;-77
2022/06/11 14:21:55;;;;;;;2.58;0.90;;;;;;;;;;5108663;27;20626;-77
2022/06/11 14:24:40;;;;;;;1.85;1.00;;;;;;;;;;5112702;27;20257;-77
2022/06/11 14:27:26;;;;;;;2.22;0.90;;;;;;;;;;5105015;27;20378;-76
2022/06/11 14:30:02;;;;;;;1.60;0.80;;;;;;;;;;5110929;27;20191;-77
2022/06/11 14:32:32;;;;;;;4.45;1.35;;;;;;;;;;5106919;28;20832;-77
2022/06/11 14:35:11;;;;;;;3.10;1.13;;;;;;;;;;5112800;28;20285;-77
2022/06/11 14:37:39;;;;;;;2.05;1.00;;;;;;;;;;5112020;27;20356;-77
2022/06/11 14:40:08;;;;;;;2.42;1.17;;;;;;;;;;5114196;27;20232;-76
2022/06/11 14:42:54;;;;;;;5.60;1.40;;;;;;;;;;5120856;27;20613;-77
2022/06/11 14:45:36;;;;;;;4.28;1.45;;;;;;;;;;5126822;27;20327;-79
2022/06/11 14:48:06;;;;;;;4.05;1.70;;;;;;;;;;5116181;27;20198;-78
2022/06/11 14:50:45;;;;;;;4.95;1.50;;;;;;;;;;5116397;27;20221;-77
2022/06/11 14:53:17;;;;;;;3.65;1.42;;;;;;;;;;5123397;27;20201;-77
2022/06/11 14:55:45;;;;;;;3.75;1.60;;;;;;;;;;5118566;27;20230;-77
2022/06/11 14:58:35;;;;;;;6.63;1.52;;;;;;;;;;5113142;27;20285;-77
2022/06/11 15:01:07;;;;;;;5.97;1.27;;;;;;;;;;5119675;27;20212;-77
2022/06/11 15:03:40;;;;;;;4.32;1.60;;;;;;;;;;5117611;27;20213;-78
2022/06/11 15:06:27;;;;;;;4.03;1.50;;;;;;;;;;5120645;27;20202;-77
2022/06/11 15:09:01;;;;;;;7.28;1.58;;;;;;;;;;5121352;27;20704;-78